»·PEaware :: N805RJ L65-L18

N805RJ :: L65-L18

FLIGHT INFORMATION

Flight Status: Arrived
Operator: Privately registered:
United States
More flights under this callsign
Pilot: Rickie J. (22768)
Aircraft: CESSNA 172 SKYHAWK
(C172)
More flights by this aircraft type
Origin: L65 Perris Valley
United States
Destination: L18 Fallbrook Community
United States
More flights between these airports :: More routes between these airports
Route: PERIS WESIN V186 PDZ V8 POXKU V363 HURSI VISTA
File this flight plan on PilotEdge
Remarks:
Altitude:
(Current/Filed)
6,500ft
Speed:
(Current/Filed)
120kts
Departed: 24-Jun-20 01:56 PM
Arrived: 24-Jun-20 02:58 PM
Distance/Time
Traveled:
24nm/1:02
Distance/Time
To Go:
Arrived

Flight Plot

Page will automatically refresh every two minutes.

Flight plan parsing failed; only flown route is shown


Map Options




Map Legend


Flown Route
Filed Route
Departure Airport
Arrival Airport
Navaid (VOR, NDB)
Fix

Horizontal Profiles

Position Reports

Time Latitude Longitude Heading Altitude Ground
Speed
24-Jun-20 13:27 33.761442 -117.218611 50 1417ft 0kts
24-Jun-20 13:28 33.761442 -117.218611 50 1417ft 0kts
24-Jun-20 13:29 33.761442 -117.218611 50 1417ft 0kts
24-Jun-20 13:30 33.761442 -117.218611 50 1417ft 0kts
24-Jun-20 13:31 33.761442 -117.218611 50 1417ft 0kts
24-Jun-20 13:32 33.761443 -117.218610 50 1417ft 0kts
24-Jun-20 13:33 33.761443 -117.218610 50 1417ft 0kts
24-Jun-20 13:34 33.761443 -117.218610 50 1417ft 0kts
24-Jun-20 13:35 33.761443 -117.218610 50 1417ft 0kts
24-Jun-20 13:36 33.761443 -117.218610 50 1417ft 0kts
24-Jun-20 13:37 33.761443 -117.218610 50 1417ft 0kts
24-Jun-20 13:38 33.761443 -117.218610 50 1417ft 0kts
24-Jun-20 13:39 33.761443 -117.218610 50 1417ft 0kts
24-Jun-20 13:40 33.761443 -117.218610 50 1417ft 0kts
24-Jun-20 13:41 33.761443 -117.218610 50 1417ft 0kts
24-Jun-20 13:42 33.761443 -117.218610 50 1417ft 0kts
24-Jun-20 13:43 33.761443 -117.218610 50 1417ft 0kts
24-Jun-20 13:44 33.761443 -117.218610 50 1417ft 0kts
24-Jun-20 13:45 33.761443 -117.218610 50 1417ft 0kts
24-Jun-20 13:46 33.761443 -117.218610 50 1417ft 0kts
24-Jun-20 13:47 33.761444 -117.218608 50 1417ft 0kts
24-Jun-20 13:48 33.761193 -117.218566 180 1417ft 2kts
24-Jun-20 13:49 33.760201 -117.218215 167 1417ft 4kts
24-Jun-20 13:50 33.758779 -117.217846 165 1417ft 5kts
24-Jun-20 13:51 33.758427 -117.217743 168 1417ft 0kts
24-Jun-20 13:52 33.758427 -117.217743 168 1417ft 0kts
24-Jun-20 13:53 33.758427 -117.217743 168 1417ft 0kts
24-Jun-20 13:54 33.758300 -117.217707 160 1417ft 1kts
24-Jun-20 13:55 33.759746 -117.217554 346 1417ft 43kts
24-Jun-20 13:56 33.780659 -117.229290 284 1809ft 100kts
24-Jun-20 13:57 33.759244 -117.239913 164 2389ft 113kts
24-Jun-20 13:58 33.730642 -117.225371 133 2982ft 114kts
24-Jun-20 13:59 33.705484 -117.205781 181 3571ft 109kts
24-Jun-20 14:00 33.676751 -117.210988 196 4160ft 103kts
24-Jun-20 14:01 33.649128 -117.218985 196 4749ft 104kts
24-Jun-20 14:02 33.621372 -117.227224 196 5340ft 103kts
24-Jun-20 14:03 33.594312 -117.235267 195 5930ft 100kts
24-Jun-20 14:04 33.582310 -117.256201 303 6508ft 104kts
24-Jun-20 14:05 33.608944 -117.280940 324 6503ft 131kts
24-Jun-20 14:06 33.639784 -117.304297 325 6501ft 133kts
24-Jun-20 14:07 33.670938 -117.327785 324 6501ft 133kts
24-Jun-20 14:08 33.702021 -117.351241 324 6501ft 133kts
24-Jun-20 14:09 33.733173 -117.375056 322 6501ft 133kts
24-Jun-20 14:10 33.763300 -117.400131 322 6502ft 133kts
24-Jun-20 14:11 33.793715 -117.425573 322 6498ft 134kts
24-Jun-20 14:12 33.824153 -117.451049 321 6474ft 134kts
24-Jun-20 14:13 33.854584 -117.476565 321 6502ft 134kts
24-Jun-20 14:14 33.885056 -117.502127 321 6502ft 134kts
24-Jun-20 14:15 33.912050 -117.530586 280 6502ft 127kts
24-Jun-20 14:16 33.907506 -117.571107 251 6499ft 124kts
24-Jun-20 14:17 33.897588 -117.610363 250 6502ft 124kts
24-Jun-20 14:18 33.887453 -117.649658 250 6502ft 125kts
24-Jun-20 14:19 33.877405 -117.688542 249 6503ft 125kts
24-Jun-20 14:20 33.867868 -117.725397 249 6502ft 126kts
24-Jun-20 14:21 33.860520 -117.754116 250 6502ft 126kts
24-Jun-20 14:22 33.849658 -117.776248 205 6503ft 123kts
24-Jun-20 14:23 33.825337 -117.781046 183 6396ft 129kts
24-Jun-20 14:24 33.801618 -117.781140 180 6206ft 132kts
24-Jun-20 14:25 33.778963 -117.778622 164 6008ft 133kts
24-Jun-20 14:26 33.747506 -117.764650 160 5740ft 133kts
24-Jun-20 14:27 33.714799 -117.749258 160 5500ft 130kts
24-Jun-20 14:28 33.680707 -117.733239 161 5506ft 124kts
24-Jun-20 14:29 33.645387 -117.725901 173 5505ft 123kts
24-Jun-20 14:30 33.609647 -117.719873 173 5507ft 123kts
24-Jun-20 14:31 33.575300 -117.714100 173 5505ft 123kts
24-Jun-20 14:32 33.540076 -117.708197 173 5506ft 123kts
24-Jun-20 14:33 33.508105 -117.702865 174 5506ft 123kts
24-Jun-20 14:34 33.475506 -117.697393 173 5507ft 123kts
24-Jun-20 14:35 33.439266 -117.691322 173 5506ft 124kts
24-Jun-20 14:36 33.402771 -117.685243 172 5504ft 123kts
24-Jun-20 14:37 33.367290 -117.679331 174 5612ft 121kts
24-Jun-20 14:38 33.333487 -117.665435 148 5617ft 127kts
24-Jun-20 14:40 33.302603 -117.639203 146 5541ft 130kts
24-Jun-20 14:41 33.271844 -117.612704 146 5502ft 127kts
24-Jun-20 14:42 33.243262 -117.588109 147 5338ft 135kts
24-Jun-20 14:43 33.210486 -117.559593 139 5011ft 140kts
24-Jun-20 14:44 33.195851 -117.512824 106 4698ft 146kts
24-Jun-20 14:45 33.185811 -117.463511 106 4390ft 147kts
24-Jun-20 14:46 33.175734 -117.413866 106 4085ft 147kts
24-Jun-20 14:47 33.178124 -117.364600 69 3773ft 149kts
24-Jun-20 14:48 33.193023 -117.317053 69 3466ft 149kts
24-Jun-20 14:49 33.207853 -117.270081 70 3146ft 141kts
24-Jun-20 14:50 33.227890 -117.239466 9 2902ft 97kts
24-Jun-20 14:51 33.253830 -117.236068 0 2591ft 101kts
24-Jun-20 14:52 33.281597 -117.232916 3 2268ft 96kts
24-Jun-20 14:53 33.307176 -117.230907 358 1966ft 92kts
24-Jun-20 14:54 33.331931 -117.229745 352 1840ft 88kts
24-Jun-20 14:55 33.356741 -117.229563 353 1697ft 92kts
24-Jun-20 14:55 33.375814 -117.233238 296 1487ft 75kts
24-Jun-20 14:57 33.363916 -117.247477 198 925ft 67kts
24-Jun-20 14:58 33.352757 -117.250856 193 712ft 2kts
24-Jun-20 14:58 33.352743 -117.251130 352 712ft 2kts
24-Jun-20 15:00 33.355230 -117.250404 12 712ft 11kts
24-Jun-20 15:00 33.356109 -117.251002 351 712ft 3kts
24-Jun-20 15:01 33.356466 -117.250870 157 712ft 1kts
24-Jun-20 15:02 33.356418 -117.250862 176 712ft 0kts
24-Jun-20 15:03 33.356418 -117.250862 176 712ft 0kts
24-Jun-20 15:04 33.356418 -117.250862 176 712ft 0kts
24-Jun-20 15:05 33.356418 -117.250862 176 712ft 0kts

Navigation Log

Ident Type
Flight plan parsing failed, navigation log unavailable